createdAt,value
2022-10-07T00:01:55.694Z,2.55
2022-10-07T00:04:24.579Z,2.83
2022-10-07T00:06:53.130Z,3.00
2022-10-07T00:09:21.564Z,3.25
2022-10-07T00:11:50.301Z,3.00
2022-10-07T00:14:20.178Z,2.75
2022-10-07T00:16:48.975Z,2.78
2022-10-07T00:19:17.824Z,3.15
2022-10-07T00:21:47.474Z,3.35
2022-10-07T00:24:16.267Z,2.80
2022-10-07T00:26:45.212Z,2.72
2022-10-07T00:29:13.649Z,2.55
2022-10-07T00:31:44.941Z,2.80
2022-10-07T00:34:14.161Z,2.97
2022-10-07T00:36:44.986Z,2.80
2022-10-07T00:39:15.817Z,2.58
2022-10-07T00:41:48.295Z,2.70
2022-10-07T00:44:36.941Z,2.80
2022-10-07T00:47:13.733Z,2.45
2022-10-07T00:49:46.398Z,2.72
2022-10-07T00:52:17.690Z,3.42
2022-10-07T00:54:46.861Z,2.90
2022-10-07T00:57:15.766Z,3.47
2022-10-07T00:59:44.342Z,2.58
2022-10-07T01:02:15.396Z,2.80
2022-10-07T01:04:46.243Z,2.85
2022-10-07T01:07:20.354Z,3.05
2022-10-07T01:09:51.387Z,3.00
2022-10-07T01:12:30.014Z,3.42
2022-10-07T01:15:05.770Z,2.78
2022-10-07T01:17:47.052Z,3.28
2022-10-07T01:20:31.732Z,3.37
2022-10-07T01:23:21.365Z,3.40
2022-10-07T01:26:13.192Z,2.97
2022-10-07T01:28:47.829Z,2.67
2022-10-07T01:31:22.532Z,2.75
2022-10-07T01:33:54.246Z,2.70
2022-10-07T01:36:26.401Z,3.15
2022-10-07T01:39:02.449Z,2.35
2022-10-07T01:41:32.747Z,2.62
2022-10-07T01:44:03.107Z,2.45
2022-10-07T01:46:33.382Z,3.03
2022-10-07T01:49:02.610Z,2.87
2022-10-07T01:51:35.553Z,3.20
2022-10-07T01:54:15.441Z,3.08
2022-10-07T01:56:57.244Z,2.60
2022-10-07T01:59:48.334Z,3.10
2022-10-07T02:02:27.877Z,2.72
2022-10-07T02:05:11.403Z,2.47
2022-10-07T02:07:56.623Z,2.78
2022-10-07T02:10:29.146Z,2.92
2022-10-07T02:13:05.576Z,2.75
2022-10-07T02:15:43.958Z,3.33
2022-10-07T02:18:16.627Z,4.62
2022-10-07T02:20:49.518Z,5.78
2022-10-07T02:23:20.813Z,5.22
2022-10-07T02:25:51.687Z,6.37
2022-10-07T02:28:23.709Z,6.90
2022-10-07T02:30:58.566Z,6.25
2022-10-07T02:33:30.246Z,6.95
2022-10-07T02:36:03.335Z,7.55
2022-10-07T02:38:32.167Z,8.07
2022-10-07T02:41:10.815Z,7.07
2022-10-07T02:43:47.627Z,7.30
2022-10-07T02:46:22.635Z,6.30
2022-10-07T02:48:58.872Z,6.25
2022-10-07T02:51:33.758Z,5.78
2022-10-07T02:54:04.919Z,5.40
2022-10-07T02:56:37.838Z,5.97
2022-10-07T02:59:11.301Z,6.03
2022-10-07T03:01:46.750Z,5.03
2022-10-07T03:04:15.975Z,5.28
2022-10-07T03:06:45.981Z,5.68
2022-10-07T03:09:14.610Z,5.60
2022-10-07T03:11:43.243Z,5.53
2022-10-07T03:14:12.456Z,4.75
2022-10-07T03:16:42.376Z,5.65
2022-10-07T03:19:11.080Z,5.87
2022-10-07T03:21:41.287Z,5.65
2022-10-07T03:24:09.971Z,6.05
2022-10-07T03:26:38.975Z,4.97
2022-10-07T03:29:08.484Z,5.15
2022-10-07T03:31:37.921Z,5.30
2022-10-07T03:34:08.627Z,5.87
2022-10-07T03:36:37.353Z,6.12
2022-10-07T03:39:06.419Z,5.35
2022-10-07T03:41:34.697Z,4.47
2022-10-07T03:44:04.617Z,4.90
2022-10-07T03:46:33.094Z,4.45
2022-10-07T03:49:01.910Z,4.65
2022-10-07T03:51:31.945Z,4.47
2022-10-07T03:54:01.540Z,4.43
2022-10-07T03:56:30.939Z,3.47
2022-10-07T03:58:59.834Z,3.35
2022-10-07T04:01:31.738Z,3.78
2022-10-07T04:04:01.537Z,3.30
2022-10-07T04:06:32.175Z,3.58
2022-10-07T04:09:03.505Z,3.97
2022-10-07T04:11:32.451Z,3.50
2022-10-07T04:14:01.502Z,4.28
2022-10-07T04:16:31.951Z,3.90
2022-10-07T04:19:03.703Z,3.08
2022-10-07T04:21:34.020Z,3.33
2022-10-07T04:24:02.982Z,4.07
2022-10-07T04:26:31.298Z,3.37
2022-10-07T04:29:00.222Z,3.85
2022-10-07T04:31:29.328Z,3.70
2022-10-07T04:33:57.899Z,3.47
2022-10-07T04:36:27.292Z,3.75
2022-10-07T04:38:58.354Z,3.17
2022-10-07T04:41:27.132Z,4.12
2022-10-07T04:43:58.013Z,4.12
2022-10-07T04:46:28.473Z,4.05
2022-10-07T04:48:58.134Z,4.43
2022-10-07T04:51:26.807Z,3.70
2022-10-07T04:53:58.680Z,3.72
2022-10-07T04:56:31.405Z,3.83
2022-10-07T04:59:03.700Z,3.80
2022-10-07T05:01:32.439Z,3.95
2022-10-07T05:04:01.010Z,3.17
2022-10-07T05:06:29.455Z,3.75
2022-10-07T05:08:59.436Z,3.10
2022-10-07T05:11:27.919Z,3.72
2022-10-07T05:13:57.281Z,3.95
2022-10-07T05:16:26.398Z,4.05
2022-10-07T05:18:54.896Z,2.72
2022-10-07T05:21:24.638Z,3.60
2022-10-07T05:23:53.608Z,3.33
2022-10-07T05:26:24.051Z,4.12
2022-10-07T05:28:54.936Z,3.37
2022-10-07T05:31:23.602Z,3.17
2022-10-07T05:33:53.442Z,3.37
2022-10-07T05:36:21.869Z,3.62
2022-10-07T05:38:50.519Z,3.15
2022-10-07T05:41:19.669Z,3.10
2022-10-07T05:43:49.334Z,3.17
2022-10-07T05:46:20.417Z,3.30
2022-10-07T05:48:51.163Z,3.28
2022-10-07T05:51:20.060Z,3.30
2022-10-07T05:53:49.184Z,3.22
2022-10-07T05:56:21.474Z,3.40
2022-10-07T05:58:54.468Z,3.15
2022-10-07T06:01:24.547Z,3.80
2022-10-07T06:03:56.821Z,3.22
2022-10-07T06:06:26.293Z,3.92
2022-10-07T06:09:15.190Z,3.60
2022-10-07T06:12:01.984Z,2.85
2022-10-07T06:14:33.046Z,3.55
2022-10-07T06:17:01.790Z,3.62
2022-10-07T06:19:30.775Z,3.62
2022-10-07T06:21:59.739Z,3.67
2022-10-07T06:24:28.515Z,3.28
2022-10-07T06:26:58.855Z,3.60
2022-10-07T06:29:28.673Z,2.97
2022-10-07T06:31:59.622Z,3.65
2022-10-07T06:34:28.506Z,3.37
2022-10-07T06:36:57.295Z,3.28
2022-10-07T06:39:26.546Z,3.08
2022-10-07T06:41:57.235Z,3.42
2022-10-07T06:44:26.259Z,2.97
2022-10-07T06:46:54.631Z,3.08
2022-10-07T06:49:24.532Z,3.80
2022-10-07T06:51:53.251Z,3.60
2022-10-07T06:54:21.925Z,3.55
2022-10-07T06:56:50.347Z,3.50
2022-10-07T06:59:19.708Z,3.62
2022-10-07T07:01:48.345Z,3.75
2022-10-07T07:04:16.921Z,3.50
2022-10-07T07:06:47.419Z,3.03
2022-10-07T07:09:16.008Z,3.60
2022-10-07T07:11:45.559Z,3.30
2022-10-07T07:14:15.030Z,3.55
2022-10-07T07:16:44.512Z,3.30
2022-10-07T07:19:14.572Z,3.10
2022-10-07T07:21:46.489Z,4.03
2022-10-07T07:24:18.186Z,3.78
2022-10-07T07:26:48.428Z,3.05
2022-10-07T07:29:17.623Z,3.28
2022-10-07T07:31:46.202Z,3.20
2022-10-07T07:34:15.608Z,3.45
2022-10-07T07:36:46.077Z,2.83
2022-10-07T07:39:18.757Z,2.95
2022-10-07T07:41:47.971Z,2.53
2022-10-07T07:44:19.173Z,3.12
2022-10-07T07:46:51.453Z,2.92
2022-10-07T07:49:22.392Z,3.17
2022-10-07T07:51:51.228Z,3.20
2022-10-07T07:54:21.718Z,3.58
2022-10-07T07:56:50.354Z,3.05
2022-10-07T07:59:19.203Z,3.30
2022-10-07T08:01:48.607Z,3.20
2022-10-07T08:04:18.018Z,3.30
2022-10-07T08:06:46.713Z,3.05
2022-10-07T08:09:15.223Z,2.67
2022-10-07T08:11:45.833Z,2.53
2022-10-07T08:14:15.792Z,2.65
2022-10-07T08:16:45.103Z,2.70
2022-10-07T08:19:13.670Z,2.40
2022-10-07T08:21:42.542Z,2.28
2022-10-07T08:24:14.519Z,2.35
2022-10-07T08:26:42.993Z,1.85
2022-10-07T08:29:15.269Z,2.15
2022-10-07T08:31:44.059Z,2.00
2022-10-07T08:34:12.770Z,1.85
2022-10-07T08:36:46.991Z,2.05
2022-10-07T08:39:16.204Z,1.80
2022-10-07T08:41:55.708Z,1.90
2022-10-07T08:44:32.091Z,1.90
2022-10-07T08:47:07.521Z,2.10
2022-10-07T08:49:45.126Z,2.00
2022-10-07T08:52:30.075Z,2.37
2022-10-07T08:55:00.449Z,2.22
2022-10-07T08:57:43.837Z,2.12
2022-10-07T09:00:17.873Z,2.30
2022-10-07T09:03:05.583Z,2.08
2022-10-07T09:05:39.083Z,1.98
2022-10-07T09:08:14.407Z,2.47
2022-10-07T09:10:48.733Z,2.60
2022-10-07T09:13:22.035Z,1.90
2022-10-07T09:16:00.376Z,2.53
2022-10-07T09:18:35.070Z,2.83
2022-10-07T09:21:07.035Z,2.03
2022-10-07T09:23:36.954Z,2.08
2022-10-07T09:26:10.599Z,2.10
2022-10-07T09:28:39.213Z,2.00
2022-10-07T09:31:12.388Z,2.50
2022-10-07T09:33:43.917Z,2.17
2022-10-07T09:36:17.150Z,2.30
2022-10-07T09:38:47.429Z,1.65
2022-10-07T09:41:19.817Z,1.60
2022-10-07T09:44:02.929Z,2.40
2022-10-07T09:46:47.679Z,1.80
2022-10-07T09:49:32.741Z,2.20
2022-10-07T09:52:03.690Z,1.80
2022-10-07T09:54:33.396Z,1.40
2022-10-07T09:57:04.229Z,1.67
2022-10-07T09:59:33.862Z,1.40
2022-10-07T10:02:19.164Z,1.87
2022-10-07T10:04:51.100Z,1.40
2022-10-07T10:07:21.826Z,1.40
2022-10-07T10:09:51.755Z,1.65
2022-10-07T10:12:21.962Z,1.30
2022-10-07T10:14:53.414Z,1.58
2022-10-07T10:17:31.215Z,1.20
2022-10-07T10:20:26.619Z,1.65
2022-10-07T10:22:55.459Z,1.30
2022-10-07T10:25:51.549Z,0.93
2022-10-07T10:28:29.741Z,1.20
2022-10-07T10:31:08.417Z,1.30
2022-10-07T10:33:47.079Z,0.90
2022-10-07T10:36:20.553Z,0.80
2022-10-07T10:38:53.652Z,0.80
2022-10-07T10:41:32.924Z,0.90
2022-10-07T10:44:33.539Z,0.82
2022-10-07T10:47:07.195Z,0.85
2022-10-07T10:49:42.983Z,0.93
2022-10-07T10:52:30.298Z,0.90
2022-10-07T10:55:22.089Z,0.95
2022-10-07T10:58:02.577Z,0.95
2022-10-07T11:00:42.013Z,0.80
2022-10-07T11:03:35.260Z,0.68
2022-10-07T11:06:08.863Z,0.90
2022-10-07T11:08:38.910Z,0.75
2022-10-07T11:11:11.850Z,1.02
2022-10-07T11:13:46.830Z,1.05
2022-10-07T11:16:19.905Z,0.85
2022-10-07T11:18:52.895Z,1.00
2022-10-07T11:21:27.083Z,0.77
2022-10-07T11:24:02.446Z,0.80
2022-10-07T11:26:37.491Z,0.93
2022-10-07T11:29:19.168Z,1.00
2022-10-07T11:31:55.003Z,0.82
2022-10-07T11:34:31.164Z,0.98
2022-10-07T11:37:07.144Z,0.50
2022-10-07T11:39:38.807Z,0.77
2022-10-07T11:42:14.406Z,0.60
2022-10-07T11:44:53.175Z,0.40
2022-10-07T11:47:27.368Z,0.65
2022-10-07T11:50:02.858Z,0.70
2022-10-07T11:52:43.424Z,0.70
2022-10-07T11:55:20.147Z,0.68
2022-10-07T11:57:54.178Z,0.50
2022-10-07T12:00:28.137Z,0.90
2022-10-07T12:02:57.267Z,0.50
2022-10-07T12:05:56.049Z,0.70
2022-10-07T12:08:32.452Z,0.50
2022-10-07T12:11:44.241Z,0.47
2022-10-07T12:14:36.454Z,0.90
2022-10-07T12:17:23.882Z,0.40
2022-10-07T12:20:30.128Z,0.60
2022-10-07T12:23:40.672Z,0.50
2022-10-07T12:26:51.310Z,0.85
2022-10-07T12:29:36.265Z,0.60
2022-10-07T12:32:05.148Z,0.77
2022-10-07T12:34:39.910Z,0.90
2022-10-07T12:37:50.400Z,0.65
2022-10-07T12:40:25.923Z,0.60
2022-10-07T12:43:11.480Z,0.50
2022-10-07T12:45:43.489Z,0.50
2022-10-07T12:48:21.402Z,0.62
2022-10-07T12:50:53.109Z,0.55
2022-10-07T12:53:26.353Z,0.57
2022-10-07T12:55:57.539Z,0.50
2022-10-07T12:59:06.309Z,0.98
2022-10-07T13:01:57.919Z,0.62
2022-10-07T13:04:57.455Z,0.70
2022-10-07T13:07:54.381Z,0.32
2022-10-07T13:10:48.166Z,0.60
2022-10-07T13:13:23.406Z,0.47
2022-10-07T13:15:57.913Z,0.50
2022-10-07T13:18:37.347Z,1.00
2022-10-07T13:21:13.613Z,0.73
2022-10-07T13:23:41.825Z,0.37
2022-10-07T13:26:14.786Z,0.68
2022-10-07T13:28:50.025Z,0.50
2022-10-07T13:31:21.981Z,0.65
2022-10-07T13:33:51.301Z,0.80
2022-10-07T13:36:23.062Z,0.50
2022-10-07T13:38:54.884Z,0.50
2022-10-07T13:41:27.230Z,0.77
2022-10-07T13:44:00.667Z,0.70
2022-10-07T13:46:31.206Z,0.50
2022-10-07T13:49:00.219Z,0.80
2022-10-07T13:51:33.010Z,0.80
2022-10-07T13:54:03.454Z,0.85
2022-10-07T13:56:35.996Z,0.50
2022-10-07T13:59:07.335Z,0.60
2022-10-07T14:01:38.836Z,0.57
2022-10-07T14:04:19.954Z,0.60
2022-10-07T14:06:52.456Z,0.52
2022-10-07T14:09:24.751Z,0.50
2022-10-07T14:11:57.641Z,1.02
2022-10-07T14:14:32.461Z,0.80
2022-10-07T14:17:01.270Z,0.70
2022-10-07T14:19:33.805Z,0.70
2022-10-07T14:22:04.435Z,0.73
2022-10-07T14:24:33.069Z,0.52
2022-10-07T14:27:01.574Z,0.70
2022-10-07T14:29:38.701Z,0.60
2022-10-07T14:32:30.412Z,0.52
2022-10-07T14:35:22.908Z,0.70
2022-10-07T14:37:51.391Z,0.85
2022-10-07T14:40:22.624Z,0.70
2022-10-07T14:42:53.479Z,0.57
2022-10-07T14:45:23.823Z,0.70
2022-10-07T14:47:52.445Z,1.17
2022-10-07T14:50:20.772Z,0.60
2022-10-07T14:52:52.120Z,0.85
2022-10-07T14:55:23.166Z,0.40
2022-10-07T14:57:52.787Z,0.75
2022-10-07T15:00:25.675Z,0.70
2022-10-07T15:02:54.733Z,0.80
2022-10-07T15:05:23.636Z,0.60
2022-10-07T15:07:51.900Z,0.90
2022-10-07T15:10:23.260Z,0.80
2022-10-07T15:12:51.741Z,0.40
2022-10-07T15:15:20.679Z,0.95
2022-10-07T15:17:50.560Z,0.77
2022-10-07T15:20:19.694Z,1.00
2022-10-07T15:22:48.329Z,1.30
2022-10-07T15:25:18.106Z,0.80
2022-10-07T15:27:46.557Z,0.95
2022-10-07T15:30:15.033Z,0.80
2022-10-07T15:32:44.141Z,0.60
2022-10-07T15:35:14.055Z,0.80
2022-10-07T15:37:45.848Z,0.80
2022-10-07T15:40:14.769Z,1.00
2022-10-07T15:42:44.427Z,0.90
2022-10-07T15:45:13.359Z,0.82
2022-10-07T15:47:41.982Z,0.90
2022-10-07T15:50:10.908Z,0.90
2022-10-07T15:52:40.561Z,0.82
2022-10-07T15:55:09.722Z,0.73
2022-10-07T15:57:37.868Z,0.80
2022-10-07T16:00:06.638Z,0.77
2022-10-07T16:02:40.104Z,0.60
2022-10-07T16:05:09.757Z,1.10
2022-10-07T16:07:38.034Z,0.80
2022-10-07T16:10:12.822Z,0.90
2022-10-07T16:12:41.827Z,0.65
2022-10-07T16:15:10.712Z,0.52
2022-10-07T16:17:38.890Z,0.80
2022-10-07T16:20:11.403Z,1.00
2022-10-07T16:22:39.856Z,1.40
2022-10-07T16:25:10.133Z,1.40
2022-10-07T16:27:52.478Z,1.30
2022-10-07T16:30:38.367Z,1.60
2022-10-07T16:33:06.495Z,1.25
2022-10-07T16:35:34.980Z,1.30
2022-10-07T16:38:04.236Z,1.15
2022-10-07T16:40:33.746Z,1.45
2022-10-07T16:43:02.124Z,1.27
2022-10-07T16:45:30.315Z,0.90
2022-10-07T16:47:58.745Z,1.25
2022-10-07T16:50:27.231Z,1.12
2022-10-07T16:52:55.764Z,1.08
2022-10-07T16:55:23.949Z,0.80
2022-10-07T16:57:54.170Z,0.70
2022-10-07T17:00:23.073Z,1.00
2022-10-07T17:02:51.304Z,0.90
2022-10-07T17:05:19.833Z,0.98
2022-10-07T17:07:49.054Z,1.05
2022-10-07T17:10:17.430Z,1.05
2022-10-07T17:12:46.140Z,1.45
2022-10-07T17:15:16.142Z,0.82
2022-10-07T17:17:44.717Z,1.20
2022-10-07T17:20:13.502Z,1.00
2022-10-07T17:22:43.292Z,1.05
2022-10-07T17:25:11.570Z,1.20
2022-10-07T17:27:39.997Z,1.33
2022-10-07T17:30:09.511Z,1.55
2022-10-07T17:32:38.971Z,1.35
2022-10-07T17:35:08.996Z,1.45
2022-10-07T17:37:37.325Z,1.60
2022-10-07T17:40:06.173Z,1.23
2022-10-07T17:42:34.738Z,1.60
2022-10-07T17:45:04.629Z,1.42
2022-10-07T17:47:33.658Z,1.65
2022-10-07T17:50:03.547Z,1.35
2022-10-07T17:52:32.700Z,1.73
2022-10-07T17:55:00.981Z,1.48
2022-10-07T17:57:29.715Z,2.00
2022-10-07T17:59:57.951Z,2.30
2022-10-07T18:02:26.182Z,2.08
2022-10-07T18:04:54.765Z,2.40
2022-10-07T18:07:24.380Z,2.22
2022-10-07T18:09:52.619Z,2.53
2022-10-07T18:12:38.399Z,1.92
2022-10-07T18:15:22.282Z,1.90
2022-10-07T18:17:52.848Z,2.35
2022-10-07T18:20:22.836Z,1.80
2022-10-07T18:22:57.030Z,1.50
2022-10-07T18:25:25.813Z,1.77
2022-10-07T18:27:54.391Z,2.78
2022-10-07T18:30:23.084Z,2.67
2022-10-07T18:32:51.262Z,2.83
2022-10-07T18:35:19.963Z,2.53
2022-10-07T18:37:49.575Z,2.72
2022-10-07T18:40:19.133Z,2.12
2022-10-07T18:42:47.709Z,3.42
2022-10-07T18:45:16.147Z,2.28
2022-10-07T18:47:44.659Z,2.62
2022-10-07T18:50:13.326Z,3.10
2022-10-07T18:52:41.554Z,3.03
2022-10-07T18:55:10.312Z,2.50
2022-10-07T18:57:40.271Z,2.80
2022-10-07T19:00:09.793Z,2.97
2022-10-07T19:02:38.371Z,3.72
2022-10-07T19:05:07.328Z,4.22
2022-10-07T19:07:35.573Z,3.83
2022-10-07T19:10:03.831Z,4.03
2022-10-07T19:12:49.761Z,3.83
2022-10-07T19:15:19.598Z,4.82
2022-10-07T19:17:48.779Z,5.72
2022-10-07T19:20:18.094Z,4.30
2022-10-07T19:22:46.409Z,4.28
2022-10-07T19:25:32.809Z,3.80
2022-10-07T19:28:01.109Z,2.85
2022-10-07T19:30:31.029Z,2.90
2022-10-07T19:32:59.292Z,3.42
2022-10-07T19:35:30.096Z,3.12
2022-10-07T19:37:58.510Z,3.30
2022-10-07T19:40:26.905Z,3.30
2022-10-07T19:42:55.082Z,3.55
2022-10-07T19:45:23.795Z,2.75
2022-10-07T19:47:53.818Z,2.90
2022-10-07T19:50:22.138Z,2.95
2022-10-07T19:52:53.293Z,3.12
2022-10-07T19:55:22.014Z,2.65
2022-10-07T19:57:54.602Z,2.95
2022-10-07T20:00:24.529Z,2.87
2022-10-07T20:02:56.897Z,3.28
2022-10-07T20:05:26.195Z,2.67
2022-10-07T20:07:54.745Z,2.35
2022-10-07T20:10:24.001Z,3.17
2022-10-07T20:12:52.875Z,2.55
2022-10-07T20:15:23.186Z,2.75
2022-10-07T20:17:51.487Z,2.90
2022-10-07T20:20:21.108Z,2.70
2022-10-07T20:22:49.805Z,2.62
2022-10-07T20:25:18.349Z,2.95
2022-10-07T20:27:46.703Z,3.00
2022-10-07T20:30:18.194Z,2.90
2022-10-07T20:32:46.869Z,3.03
2022-10-07T20:35:15.731Z,2.58
2022-10-07T20:37:45.686Z,2.78
2022-10-07T20:40:31.301Z,2.70
2022-10-07T20:43:00.861Z,3.37
2022-10-07T20:45:29.056Z,2.72
2022-10-07T20:47:59.542Z,3.22
2022-10-07T20:50:28.154Z,2.65
2022-10-07T20:52:57.661Z,2.90
2022-10-07T20:55:26.133Z,2.53
2022-10-07T20:57:54.605Z,2.58
2022-10-07T21:00:22.881Z,2.47
2022-10-07T21:02:51.438Z,2.90
2022-10-07T21:05:20.427Z,2.58
2022-10-07T21:07:53.776Z,2.72
2022-10-07T21:10:24.643Z,2.60
2022-10-07T21:12:52.886Z,2.00
2022-10-07T21:15:21.075Z,3.15
2022-10-07T21:17:49.545Z,2.67
2022-10-07T21:20:17.827Z,2.60
2022-10-07T21:22:46.378Z,2.70
2022-10-07T21:25:16.242Z,2.72
2022-10-07T21:27:45.855Z,2.40
2022-10-07T21:30:14.235Z,2.33
2022-10-07T21:32:42.732Z,2.60
2022-10-07T21:35:11.486Z,2.60
2022-10-07T21:37:39.706Z,2.80
2022-10-07T21:40:09.116Z,2.50
2022-10-07T21:42:37.282Z,2.97
2022-10-07T21:45:08.192Z,2.80
2022-10-07T21:47:36.577Z,2.40
2022-10-07T21:50:06.096Z,2.58
2022-10-07T21:52:34.308Z,2.83
2022-10-07T21:55:02.807Z,2.47
2022-10-07T21:57:30.969Z,2.72
2022-10-07T21:59:59.159Z,2.60
2022-10-07T22:02:29.383Z,2.85
2022-10-07T22:04:58.092Z,2.55
2022-10-07T22:07:43.816Z,2.40
2022-10-07T22:10:12.223Z,2.53
2022-10-07T22:12:41.122Z,1.90
2022-10-07T22:15:10.241Z,2.33
2022-10-07T22:17:40.051Z,2.53
2022-10-07T22:20:09.546Z,1.95
2022-10-07T22:22:37.728Z,2.25
2022-10-07T22:25:07.961Z,2.53
2022-10-07T22:27:36.135Z,2.28
2022-10-07T22:30:04.939Z,2.28
2022-10-07T22:32:33.590Z,2.03
2022-10-07T22:35:20.472Z,2.28
2022-10-07T22:37:48.884Z,2.15
2022-10-07T22:40:17.161Z,2.12
2022-10-07T22:42:46.872Z,2.20
2022-10-07T22:45:17.150Z,2.37
2022-10-07T22:47:45.517Z,2.87
2022-10-07T22:50:16.054Z,2.10
2022-10-07T22:52:46.282Z,2.20
2022-10-07T22:55:18.034Z,2.62
2022-10-07T22:57:46.429Z,2.50
2022-10-07T23:00:15.848Z,2.58
2022-10-07T23:02:44.567Z,2.12
2022-10-07T23:05:14.950Z,2.25
2022-10-07T23:07:43.103Z,2.50
2022-10-07T23:10:11.220Z,2.53
2022-10-07T23:12:39.707Z,2.22
2022-10-07T23:15:08.682Z,2.40
2022-10-07T23:17:36.868Z,2.40
2022-10-07T23:20:06.184Z,2.80
2022-10-07T23:22:35.681Z,2.20
2022-10-07T23:25:04.450Z,2.35
2022-10-07T23:27:32.965Z,2.10
2022-10-07T23:30:01.253Z,2.70
2022-10-07T23:32:29.537Z,2.70
2022-10-07T23:34:58.090Z,2.90
2022-10-07T23:37:26.396Z,2.15
2022-10-07T23:39:56.012Z,2.28
2022-10-07T23:42:24.517Z,2.72
2022-10-07T23:44:52.701Z,2.33
2022-10-07T23:47:22.920Z,2.60
2022-10-07T23:49:51.399Z,2.65
2022-10-07T23:52:19.581Z,2.70
2022-10-07T23:54:47.745Z,2.72
2022-10-07T23:57:17.664Z,2.40
2022-10-07T23:59:45.756Z,2.65
